Time;durP1;ratioP1;P1;durP2;ratioP2;P2;SDS_P1;SDS_P2;PMS_P1;PMS_P2;Temp;Humidity;BMP_temperature;BMP_pressure;BME280_temperature;BME280_humidity;BME280_pressure;Samples;Min_cycle;Max_cycle;Signal;HPM_P1;HPM_P2
2022/04/10 00:02:15;;;;;;;4.45;1.90;;;8.40;99.90;;;;;;5013147;28;20033;-88
2022/04/10 00:04:41;;;;;;;3.40;1.70;;;8.50;99.90;;;;;;5013080;28;20033;-87
2022/04/10 00:07:06;;;;;;;6.70;2.55;;;8.40;99.90;;;;;;5013222;28;20140;-87
2022/04/10 00:09:32;;;;;;;2.88;1.77;;;8.40;99.90;;;;;;5014241;28;20026;-87
2022/04/10 00:11:58;;;;;;;4.18;1.95;;;8.40;99.90;;;;;;5012896;28;20390;-87
2022/04/10 00:14:24;;;;;;;3.42;1.77;;;8.40;99.90;;;;;;5014205;28;20018;-87
2022/04/10 00:16:50;;;;;;;5.53;2.22;;;8.30;99.90;;;;;;5014102;28;20040;-87
2022/04/10 00:19:16;;;;;;;4.13;2.03;;;8.30;99.90;;;;;;5014060;28;20030;-87
2022/04/10 00:21:42;;;;;;;3.30;1.92;;;8.30;99.90;;;;;;5012751;28;20021;-87
2022/04/10 00:24:08;;;;;;;4.38;1.90;;;8.30;99.90;;;;;;5013929;28;20034;-88
2022/04/10 00:26:34;;;;;;;4.40;2.00;;;8.30;99.90;;;;;;5012639;28;20393;-88
2022/04/10 00:29:00;;;;;;;3.08;1.88;;;8.30;99.90;;;;;;5012635;28;20018;-88
2022/04/10 00:31:26;;;;;;;4.05;2.15;;;8.30;99.90;;;;;;5012581;28;20033;-88
2022/04/10 00:33:51;;;;;;;4.63;2.28;;;8.30;99.90;;;;;;5012580;28;20021;-87
2022/04/10 00:36:17;;;;;;;3.47;1.98;;;8.30;99.90;;;;;;5012474;28;20131;-87
2022/04/10 00:38:43;;;;;;;5.00;2.35;;;8.30;99.90;;;;;;5013659;28;20022;-87
2022/04/10 00:41:08;;;;;;;3.53;2.00;;;8.30;99.90;;;;;;5012304;28;20026;-88
2022/04/10 00:43:36;;;;;;;3.72;1.95;;;8.30;99.90;;;;;;5013556;28;20074;-88
2022/04/10 00:46:02;;;;;;;4.40;2.05;;;8.30;99.90;;;;;;5012157;28;20021;-87
2022/04/10 00:48:28;;;;;;;3.42;2.00;;;8.30;99.90;;;;;;5012154;28;20033;-87
2022/04/10 00:53:40;;;;;;;6.70;2.10;;;8.30;99.90;;;;;;5013325;28;20053;-87
2022/04/10 00:56:06;;;;;;;4.50;1.80;;;8.20;99.90;;;;;;5012062;28;20025;-88
2022/04/10 00:58:32;;;;;;;2.17;1.67;;;8.20;99.90;;;;;;5011961;28;20504;-88
2022/04/10 01:00:58;;;;;;;4.53;1.98;;;8.20;99.90;;;;;;5013371;28;20114;-87
2022/04/10 01:03:24;;;;;;;5.78;2.00;;;8.20;99.90;;;;;;5011944;28;20034;-88
2022/04/10 01:05:49;;;;;;;2.85;1.73;;;8.20;99.90;;;;;;5013206;28;20025;-88
2022/04/10 01:08:15;;;;;;;3.83;1.90;;;8.20;99.90;;;;;;5013091;28;20076;-87
2022/04/10 01:10:42;;;;;;;4.55;2.00;;;8.20;99.90;;;;;;5011891;28;20077;-88
2022/04/10 01:13:08;;;;;;;4.38;2.10;;;8.20;99.90;;;;;;5011890;28;20032;-87
2022/04/10 01:15:36;;;;;;;5.55;1.77;;;8.20;99.90;;;;;;5012105;28;20044;-87
2022/04/10 01:18:03;;;;;;;3.72;2.08;;;8.20;99.90;;;;;;5011973;28;20026;-88
2022/04/10 01:20:30;;;;;;;4.22;1.85;;;8.20;99.90;;;;;;5011874;28;20095;-87
2022/04/10 01:22:56;;;;;;;4.50;1.80;;;8.20;99.90;;;;;;5013087;28;20022;-88
2022/04/10 01:25:21;;;;;;;4.32;1.85;;;8.20;99.90;;;;;;5013053;28;20026;-87
2022/04/10 01:27:47;;;;;;;3.20;1.48;;;8.20;99.90;;;;;;5013256;28;20034;-88
2022/04/10 01:30:14;;;;;;;3.30;1.52;;;8.20;99.90;;;;;;5011923;28;20018;-87
2022/04/10 01:32:40;;;;;;;3.85;1.67;;;8.20;99.90;;;;;;5011865;28;20026;-87
2022/04/10 01:35:06;;;;;;;4.05;2.00;;;8.20;99.90;;;;;;5011812;28;20109;-87
2022/04/10 01:37:33;;;;;;;4.32;2.22;;;8.20;99.90;;;;;;5011787;28;20473;-87
2022/04/10 01:39:58;;;;;;;6.90;1.98;;;8.20;99.90;;;;;;5011765;28;20050;-87
2022/04/10 01:42:24;;;;;;;2.65;1.67;;;8.20;99.90;;;;;;5011775;28;20084;-87
2022/04/10 01:44:50;;;;;;;4.13;1.65;;;8.20;99.90;;;;;;5011653;28;20022;-87
2022/04/10 01:47:15;;;;;;;3.38;1.70;;;8.20;99.90;;;;;;5012413;28;20026;-87
2022/04/10 01:49:41;;;;;;;4.20;1.90;;;8.20;99.90;;;;;;5011699;28;20037;-87
2022/04/10 01:52:07;;;;;;;2.95;1.67;;;8.20;99.90;;;;;;5011823;28;20026;-87
2022/04/10 01:54:33;;;;;;;2.65;1.40;;;8.10;99.90;;;;;;5011613;28;20042;-87
2022/04/10 01:56:58;;;;;;;2.22;1.70;;;8.10;99.90;;;;;;5011724;28;20036;-87
2022/04/10 01:59:26;;;;;;;2.05;1.35;;;8.10;99.90;;;;;;5012864;28;20516;-87
2022/04/10 02:01:51;;;;;;;3.78;1.75;;;8.10;99.90;;;;;;5011657;28;20034;-87
2022/04/10 02:04:18;;;;;;;3.63;1.45;;;8.10;99.90;;;;;;5014658;28;20026;-87
2022/04/10 02:06:44;;;;;;;4.28;1.70;;;8.10;99.90;;;;;;5016486;28;20022;-87
2022/04/10 02:09:10;;;;;;;4.10;1.75;;;8.10;99.90;;;;;;5016937;28;20025;-87
2022/04/10 02:11:35;;;;;;;3.70;1.80;;;8.10;99.90;;;;;;5016375;28;20167;-87
2022/04/10 02:14:01;;;;;;;4.28;1.90;;;8.10;99.90;;;;;;5015154;28;20026;-87
2022/04/10 02:16:27;;;;;;;4.15;1.95;;;8.10;99.90;;;;;;5015162;28;20026;-87
2022/04/10 02:18:52;;;;;;;4.53;1.83;;;8.10;99.90;;;;;;5016372;28;20033;-88
2022/04/10 02:21:18;;;;;;;3.90;1.88;;;8.10;99.90;;;;;;5015083;28;20021;-87
2022/04/10 02:23:44;;;;;;;4.90;1.83;;;8.00;99.90;;;;;;5016291;28;20026;-88
2022/04/10 02:26:13;;;;;;;2.63;1.70;;;8.00;99.90;;;;;;5015040;28;20113;-88
2022/04/10 02:28:40;;;;;;;2.88;1.50;;;8.00;99.90;;;;;;5014897;28;20030;-87
2022/04/10 02:31:05;;;;;;;3.42;1.63;;;8.00;99.90;;;;;;5014882;28;20026;-87
2022/04/10 02:33:34;;;;;;;2.58;1.60;;;8.00;99.90;;;;;;5016048;28;20083;-87
2022/04/10 02:36:00;;;;;;;2.28;1.42;;;8.00;99.90;;;;;;5014847;28;20136;-88
2022/04/10 02:38:26;;;;;;;5.20;1.90;;;8.00;99.90;;;;;;5015072;28;20030;-87
2022/04/10 02:40:51;;;;;;;5.45;1.60;;;8.00;99.90;;;;;;5014685;28;20389;-87
2022/04/10 02:43:17;;;;;;;2.25;1.33;;;8.00;99.90;;;;;;5014546;28;20485;-87
2022/04/10 02:45:43;;;;;;;3.72;1.42;;;8.00;99.90;;;;;;5014534;28;20037;-87
2022/04/10 02:48:10;;;;;;;4.55;1.90;;;7.90;99.90;;;;;;5015783;28;20109;-87
2022/04/10 02:50:36;;;;;;;3.45;1.60;;;7.90;99.90;;;;;;5014607;28;20022;-88
2022/04/10 02:53:02;;;;;;;2.78;1.60;;;7.90;99.90;;;;;;5014320;28;20042;-87
2022/04/10 02:55:28;;;;;;;2.88;1.63;;;7.90;99.90;;;;;;5014473;28;20112;-88
2022/04/10 02:57:54;;;;;;;5.30;1.90;;;7.90;99.90;;;;;;5015739;28;20018;-87
2022/04/10 03:00:20;;;;;;;3.75;1.65;;;7.90;99.90;;;;;;5014368;28;20029;-87
2022/04/10 03:02:46;;;;;;;2.13;1.60;;;7.90;99.90;;;;;;5014316;28;20144;-87
2022/04/10 03:05:12;;;;;;;2.65;1.60;;;7.90;99.90;;;;;;5014183;28;20033;-87
2022/04/10 03:07:38;;;;;;;5.07;1.67;;;7.90;99.90;;;;;;5014199;28;20026;-87
2022/04/10 03:10:04;;;;;;;3.10;1.67;;;7.90;99.90;;;;;;5014224;28;20392;-87
2022/04/10 03:12:30;;;;;;;2.85;1.88;;;7.90;99.90;;;;;;5015609;28;20473;-87
2022/04/10 03:14:56;;;;;;;3.40;1.73;;;7.90;99.90;;;;;;5015004;28;20022;-87
2022/04/10 03:17:22;;;;;;;5.82;2.22;;;7.90;99.90;;;;;;5013956;28;20022;-88
2022/04/10 03:19:48;;;;;;;4.65;2.20;;;7.80;99.90;;;;;;5013969;28;20022;-87
2022/04/10 03:22:13;;;;;;;3.58;1.75;;;7.80;99.90;;;;;;5013985;28;20052;-88
2022/04/10 03:24:39;;;;;;;5.78;2.10;;;7.80;99.90;;;;;;5015169;28;20061;-87
2022/04/10 03:27:05;;;;;;;3.40;1.80;;;7.80;99.90;;;;;;5013853;28;20022;-87
2022/04/10 03:29:31;;;;;;;4.88;1.83;;;7.80;99.90;;;;;;5013839;28;20030;-87
2022/04/10 03:31:56;;;;;;;5.82;1.90;;;7.80;99.90;;;;;;5013775;28;20018;-87
2022/04/10 03:34:22;;;;;;;3.30;1.90;;;7.80;99.90;;;;;;5015192;28;20030;-87
2022/04/10 03:36:48;;;;;;;4.38;2.00;;;7.80;99.90;;;;;;5013661;28;20033;-88
2022/04/10 03:39:13;;;;;;;4.35;1.73;;;7.80;99.90;;;;;;5014909;28;20022;-88
2022/04/10 03:41:39;;;;;;;4.50;1.95;;;7.80;99.90;;;;;;5014823;28;20021;-87
2022/04/10 03:44:05;;;;;;;2.85;1.80;;;7.80;99.90;;;;;;5013501;28;20034;-87
2022/04/10 03:46:31;;;;;;;2.53;1.65;;;7.80;99.90;;;;;;5014737;28;20497;-87
2022/04/10 03:48:56;;;;;;;4.38;2.03;;;7.80;99.90;;;;;;5013343;28;20072;-87
2022/04/10 03:51:22;;;;;;;3.67;1.85;;;7.80;99.90;;;;;;5013352;28;20080;-88
2022/04/10 03:53:48;;;;;;;3.53;1.75;;;7.80;99.90;;;;;;5013198;28;20046;-87
2022/04/10 03:56:14;;;;;;;6.10;2.08;;;7.70;99.90;;;;;;5013320;28;20018;-87
2022/04/10 03:58:40;;;;;;;4.15;1.92;;;7.70;99.90;;;;;;5013239;28;20065;-88
2022/04/10 04:01:05;;;;;;;5.32;2.25;;;7.70;99.90;;;;;;5013169;28;20034;-88
2022/04/10 04:03:31;;;;;;;3.90;1.90;;;7.70;99.90;;;;;;5013200;28;20030;-87
2022/04/10 04:05:57;;;;;;;4.43;2.15;;;7.70;99.90;;;;;;5013007;28;20040;-87
2022/04/10 04:08:23;;;;;;;5.00;1.98;;;7.70;99.90;;;;;;5014271;28;20143;-88
2022/04/10 04:10:48;;;;;;;4.18;2.00;;;7.70;99.90;;;;;;5014580;28;20435;-87
2022/04/10 04:13:14;;;;;;;3.35;2.10;;;7.70;99.90;;;;;;5012965;28;20058;-88
2022/04/10 04:15:40;;;;;;;3.22;1.83;;;7.70;99.90;;;;;;5012922;28;20054;-87
2022/04/10 04:18:06;;;;;;;4.35;1.90;;;7.70;99.90;;;;;;5014172;28;20026;-88
2022/04/10 04:20:31;;;;;;;3.38;1.80;;;7.70;99.90;;;;;;5014209;28;20026;-88
2022/04/10 04:22:57;;;;;;;5.07;1.90;;;7.70;99.90;;;;;;5012893;28;20060;-87
2022/04/10 04:25:23;;;;;;;3.80;1.88;;;7.70;99.90;;;;;;5014090;28;20034;-87
2022/04/10 04:27:48;;;;;;;3.90;1.90;;;7.70;99.90;;;;;;5012071;28;20029;-87
2022/04/10 04:30:14;;;;;;;3.08;2.05;;;7.70;99.90;;;;;;5012751;28;20397;-88
2022/04/10 04:32:40;;;;;;;5.32;2.08;;;7.70;99.90;;;;;;5014221;28;20018;-87
2022/04/10 04:35:07;;;;;;;3.83;2.00;;;7.70;99.90;;;;;;5012622;28;20029;-87
2022/04/10 04:37:35;;;;;;;5.53;2.33;;;7.70;99.90;;;;;;5013942;28;20477;-87
2022/04/10 04:40:00;;;;;;;5.22;2.10;;;7.60;99.90;;;;;;5012623;28;20077;-87
2022/04/10 04:42:26;;;;;;;4.78;1.92;;;7.80;99.90;;;;;;5012540;28;20057;-87
2022/04/10 04:44:51;;;;;;;3.92;1.88;;;7.60;99.90;;;;;;5012528;28;20022;-87
2022/04/10 04:47:17;;;;;;;3.70;1.90;;;7.60;99.90;;;;;;5012381;28;20486;-87
2022/04/10 04:49:43;;;;;;;3.60;1.98;;;7.60;99.90;;;;;;5013575;28;20033;-88
2022/04/10 04:52:08;;;;;;;2.15;1.73;;;7.60;99.90;;;;;;5012368;28;20109;-88
2022/04/10 04:54:34;;;;;;;2.80;1.80;;;7.60;99.90;;;;;;5012258;28;20050;-87
2022/04/10 04:57:00;;;;;;;3.70;1.90;;;7.60;99.90;;;;;;5013695;28;20065;-87
2022/04/10 04:59:25;;;;;;;4.57;2.00;;;7.60;99.90;;;;;;5012322;28;20084;-88
2022/04/10 05:01:51;;;;;;;4.53;2.00;;;7.60;99.90;;;;;;5013552;28;20099;-89
2022/04/10 05:04:17;;;;;;;3.72;2.05;;;7.60;99.90;;;;;;5012363;28;20120;-88
2022/04/10 05:06:42;;;;;;;5.28;1.90;;;7.60;99.90;;;;;;5012468;28;20112;-88
2022/04/10 05:09:08;;;;;;;3.50;1.88;;;7.60;99.90;;;;;;5012247;28;20051;-88
2022/04/10 05:11:34;;;;;;;3.95;1.90;;;7.60;99.90;;;;;;5013486;28;20101;-88
2022/04/10 05:13:59;;;;;;;4.30;2.03;;;7.60;99.90;;;;;;5012225;28;20029;-88
2022/04/10 05:16:25;;;;;;;4.63;2.17;;;7.60;99.90;;;;;;5012245;28;20018;-88
2022/04/10 05:18:51;;;;;;;3.88;2.00;;;7.60;99.90;;;;;;5012196;28;20026;-87
2022/04/10 05:21:17;;;;;;;3.83;1.80;;;7.60;99.90;;;;;;5012065;28;20114;-89
2022/04/10 05:23:42;;;;;;;4.70;2.03;;;7.60;99.90;;;;;;5012114;28;20029;-88
2022/04/10 05:26:08;;;;;;;3.67;1.92;;;7.60;99.90;;;;;;5012113;28;20030;-88
2022/04/10 05:28:34;;;;;;;3.45;2.10;;;7.60;99.90;;;;;;5011985;28;20041;-88
2022/04/10 05:31:04;;;;;;;3.97;1.90;;;7.60;99.90;;;;;;5012012;28;20018;-88
2022/04/10 05:33:32;;;;;;;4.90;2.30;;;7.60;99.90;;;;;;5012099;28;20099;-88
2022/04/10 05:35:58;;;;;;;3.92;2.20;;;7.60;99.90;;;;;;5012006;28;20497;-88
2022/04/10 05:38:24;;;;;;;3.83;2.20;;;7.60;99.90;;;;;;5015390;28;20022;-88
2022/04/10 05:40:53;;;;;;;6.00;2.25;;;7.60;99.90;;;;;;5016023;28;20125;-88
2022/04/10 05:43:22;;;;;;;6.30;2.60;;;7.60;99.90;;;;;;5016479;28;20508;-88
2022/04/10 05:45:49;;;;;;;3.72;2.10;;;7.60;99.90;;;;;;5015901;28;20030;-89
2022/04/10 05:48:14;;;;;;;5.72;2.50;;;7.60;99.90;;;;;;5017032;28;20473;-89
2022/04/10 05:50:41;;;;;;;5.43;2.60;;;7.60;99.90;;;;;;5015704;28;20018;-88
2022/04/10 05:53:07;;;;;;;4.03;2.25;;;7.60;99.90;;;;;;5015525;28;20142;-89
2022/04/10 05:55:32;;;;;;;6.65;2.47;;;7.60;99.90;;;;;;5016991;28;20096;-88
2022/04/10 05:57:58;;;;;;;3.20;2.40;;;7.60;99.90;;;;;;5016931;28;20029;-88
2022/04/10 06:00:24;;;;;;;4.18;2.40;;;7.60;99.90;;;;;;5015539;28;20030;-89
2022/04/10 06:02:50;;;;;;;4.15;2.33;;;7.60;99.90;;;;;;5016784;28;20022;-88
2022/04/10 06:05:17;;;;;;;4.55;2.40;;;7.60;99.90;;;;;;5016750;28;20064;-88
2022/04/10 06:07:43;;;;;;;5.57;2.63;;;7.60;99.90;;;;;;5015543;28;20084;-89
2022/04/10 06:10:09;;;;;;;5.55;2.63;;;7.60;99.90;;;;;;5016606;28;20385;-88
2022/04/10 06:12:35;;;;;;;4.00;2.15;;;7.60;99.90;;;;;;5015365;28;20033;-88
2022/04/10 06:15:00;;;;;;;4.78;2.20;;;7.60;99.90;;;;;;5015331;28;20397;-88
2022/04/10 06:17:26;;;;;;;3.53;2.22;;;7.70;99.90;;;;;;5015228;28;20116;-87
2022/04/10 06:19:53;;;;;;;4.18;2.17;;;7.70;99.90;;;;;;5015145;28;20041;-88
2022/04/10 06:22:19;;;;;;;5.47;2.30;;;7.70;99.90;;;;;;5015377;28;20504;-88
2022/04/10 06:24:45;;;;;;;3.70;2.30;;;7.70;99.90;;;;;;5015109;28;20026;-88
2022/04/10 06:27:10;;;;;;;4.07;2.10;;;7.70;99.90;;;;;;5014961;28;20033;-88
2022/04/10 06:29:36;;;;;;;4.07;2.22;;;7.70;99.90;;;;;;5015052;28;20033;-88
2022/04/10 06:32:02;;;;;;;3.35;2.05;;;7.70;99.90;;;;;;5014925;28;20018;-88
2022/04/10 06:34:27;;;;;;;3.50;1.98;;;7.70;99.90;;;;;;5016134;28;20080;-88
2022/04/10 06:36:53;;;;;;;4.20;2.25;;;7.80;99.90;;;;;;5014922;28;20030;-88
2022/04/10 06:39:19;;;;;;;6.60;2.60;;;7.80;99.90;;;;;;5015101;28;20029;-88
2022/04/10 06:41:45;;;;;;;3.92;2.15;;;7.80;99.90;;;;;;5014824;28;20022;-88
2022/04/10 06:44:10;;;;;;;3.88;2.03;;;7.80;99.90;;;;;;5014787;28;20028;-88
2022/04/10 06:46:36;;;;;;;3.22;2.00;;;7.80;99.90;;;;;;5014756;28;20478;-88
2022/04/10 06:49:02;;;;;;;3.75;1.77;;;7.80;99.90;;;;;;5014059;28;20057;-88
2022/04/10 06:51:28;;;;;;;5.53;2.42;;;7.90;99.90;;;;;;5015574;28;20129;-88
2022/04/10 06:53:53;;;;;;;5.13;2.20;;;7.90;99.90;;;;;;5015796;28;20081;-88
2022/04/10 06:56:19;;;;;;;3.38;2.05;;;7.90;99.90;;;;;;5014371;28;20394;-88
2022/04/10 06:58:45;;;;;;;4.97;2.10;;;7.90;99.90;;;;;;5015653;28;20064;-88
2022/04/10 07:01:10;;;;;;;3.33;2.10;;;7.90;99.90;;;;;;5015887;28;20022;-88
2022/04/10 07:03:36;;;;;;;5.40;2.33;;;7.90;99.90;;;;;;5015653;28;20033;-89
2022/04/10 07:06:02;;;;;;;4.57;2.28;;;7.90;99.90;;;;;;5015732;28;20052;-88
2022/04/10 07:08:28;;;;;;;5.15;2.17;;;7.90;99.90;;;;;;5014270;28;20113;-88
2022/04/10 07:10:55;;;;;;;3.13;2.20;;;7.90;99.90;;;;;;5014339;28;20052;-88
2022/04/10 07:13:21;;;;;;;6.00;2.20;;;7.90;99.90;;;;;;5014197;28;20026;-87
2022/04/10 07:15:50;;;;;;;3.20;2.08;;;7.90;99.90;;;;;;5014241;28;20486;-88
2022/04/10 07:18:16;;;;;;;3.00;1.80;;;7.90;99.90;;;;;;5014500;28;20390;-88
2022/04/10 07:20:42;;;;;;;5.90;2.17;;;7.90;99.90;;;;;;5014079;28;20054;-89
2022/04/10 07:25:53;;;;;;;4.53;1.92;;;7.90;99.90;;;;;;5015691;28;20504;-88
2022/04/10 07:28:20;;;;;;;4.25;2.05;;;7.90;99.90;;;;;;5013676;28;20112;-88
2022/04/10 07:30:46;;;;;;;4.80;2.08;;;7.90;99.90;;;;;;5013771;28;20459;-88
2022/04/10 07:33:12;;;;;;;7.32;2.45;;;7.90;99.90;;;;;;5013689;28;20069;-88
2022/04/10 07:35:44;;;;;;;4.47;2.22;;;7.90;99.90;;;;;;5013652;28;20022;-88
2022/04/10 07:38:10;;;;;;;5.18;2.30;;;8.00;99.90;;;;;;5013662;28;20025;-87
2022/04/10 07:40:38;;;;;;;6.25;2.40;;;8.00;99.90;;;;;;5014916;28;20029;-87
2022/04/10 07:43:04;;;;;;;3.33;2.33;;;8.00;99.90;;;;;;5013552;28;20112;-88
2022/04/10 07:48:14;;;;;;;4.78;2.40;;;8.20;99.90;;;;;;5015145;28;20145;-88
2022/04/10 07:50:39;;;;;;;3.70;2.00;;;8.20;99.90;;;;;;5013415;28;20061;-88
2022/04/10 07:53:05;;;;;;;4.72;2.17;;;8.20;99.90;;;;;;5013242;28;20042;-88
2022/04/10 07:55:31;;;;;;;3.53;2.15;;;8.30;99.90;;;;;;5014855;28;20018;-88
2022/04/10 07:57:57;;;;;;;7.45;2.50;;;8.30;99.90;;;;;;5013345;28;20030;-88
2022/04/10 08:00:23;;;;;;;3.10;2.20;;;8.30;99.90;;;;;;5013145;28;20116;-88
2022/04/10 08:02:49;;;;;;;4.15;2.00;;;8.30;99.90;;;;;;5013662;28;20557;-87
2022/04/10 08:05:16;;;;;;;4.25;2.30;;;8.30;99.90;;;;;;5013175;28;20061;-88
2022/04/10 08:07:44;;;;;;;2.92;2.13;;;8.30;99.90;;;;;;5013078;28;20430;-88
2022/04/10 08:10:10;;;;;;;6.15;2.45;;;8.30;99.90;;;;;;5013114;28;20034;-88
2022/04/10 08:12:36;;;;;;;3.38;1.95;;;8.40;99.90;;;;;;5013469;28;20028;-87
2022/04/10 08:15:03;;;;;;;4.63;2.45;;;8.40;99.90;;;;;;5012973;28;20102;-87
2022/04/10 08:17:29;;;;;;;3.85;2.40;;;8.50;99.90;;;;;;5014095;28;20050;-88
2022/04/10 08:19:55;;;;;;;4.75;2.22;;;8.60;99.90;;;;;;5012980;28;20033;-88
2022/04/10 08:22:31;;;;;;;5.32;2.60;;;8.60;99.90;;;;;;5091167;28;20105;-89
2022/04/10 08:25:03;;;;;;;4.53;2.20;;;8.70;99.90;;;;;;5090614;28;20044;-88
2022/04/10 08:27:30;;;;;;;8.52;2.58;;;8.70;99.90;;;;;;5072463;28;20052;-88
2022/04/10 08:29:56;;;;;;;6.82;2.75;;;8.70;99.90;;;;;;5090446;28;20081;-88
2022/04/10 08:32:22;;;;;;;4.97;2.30;;;8.80;99.90;;;;;;5072353;28;20020;-87
2022/04/10 08:34:48;;;;;;;5.45;2.28;;;8.80;99.90;;;;;;5072212;28;20020;-87
2022/04/10 08:37:13;;;;;;;7.25;2.53;;;8.80;99.90;;;;;;5072086;28;20063;-88
2022/04/10 08:39:39;;;;;;;4.28;1.98;;;8.90;99.90;;;;;;5090226;28;20091;-87
2022/04/10 08:42:06;;;;;;;5.65;2.10;;;8.90;99.90;;;;;;5072032;28;20369;-87
2022/04/10 08:44:33;;;;;;;5.05;2.00;;;8.90;99.90;;;;;;5090213;28;20368;-87
2022/04/10 08:47:00;;;;;;;4.18;2.00;;;8.90;99.90;;;;;;5071970;28;20048;-87
2022/04/10 08:49:26;;;;;;;4.85;2.05;;;8.80;99.90;;;;;;5071834;28;20028;-87
2022/04/10 08:51:53;;;;;;;4.70;2.28;;;8.80;99.90;;;;;;5071795;28;20036;-87
2022/04/10 08:54:20;;;;;;;4.15;2.10;;;8.70;99.90;;;;;;5051814;28;20036;-88
2022/04/10 08:56:46;;;;;;;3.35;2.00;;;8.70;99.90;;;;;;5051740;28;20029;-87
2022/04/10 08:59:11;;;;;;;4.03;2.08;;;8.70;99.90;;;;;;5051536;28;20112;-87
2022/04/10 09:01:37;;;;;;;3.17;1.58;;;8.70;99.90;;;;;;5069461;28;20028;-87
2022/04/10 09:04:03;;;;;;;5.65;1.90;;;8.60;99.90;;;;;;5069529;28;20021;-88
2022/04/10 09:06:29;;;;;;;3.60;1.90;;;8.60;99.90;;;;;;5069511;28;20017;-88
2022/04/10 09:09:21;;;;;;;3.28;1.92;;;8.60;99.90;;;;;;5051472;28;20075;-87
2022/04/10 09:11:47;;;;;;;5.45;2.03;;;8.50;99.90;;;;;;5047946;28;20047;-87
2022/04/10 09:14:46;;;;;;;4.10;2.00;;;8.50;99.90;;;;;;5051371;28;20025;-87
2022/04/10 09:17:29;;;;;;;5.18;1.90;;;8.50;99.90;;;;;;5047844;28;20090;-87
2022/04/10 09:19:56;;;;;;;3.53;2.17;;;8.50;99.90;;;;;;5051441;28;20035;-87
2022/04/10 09:22:26;;;;;;;3.45;1.63;;;8.50;99.90;;;;;;5068861;28;20376;-87
2022/04/10 09:25:07;;;;;;;3.20;1.65;;;8.50;99.90;;;;;;5051207;28;20024;-88
2022/04/10 09:27:37;;;;;;;5.97;1.85;;;8.70;99.90;;;;;;5068960;28;20017;-88
2022/04/10 09:30:05;;;;;;;3.15;1.80;;;8.70;99.90;;;;;;5051111;28;20043;-88
2022/04/10 09:32:42;;;;;;;4.82;2.22;;;8.90;99.90;;;;;;5045038;28;20036;-89
2022/04/10 09:35:10;;;;;;;7.75;2.25;;;9.00;99.90;;;;;;5055682;28;20029;-88
2022/04/10 09:37:53;;;;;;;4.93;1.75;;;9.10;99.90;;;;;;5037729;28;20066;-89
2022/04/10 09:40:39;;;;;;;5.15;2.10;;;9.20;99.90;;;;;;5037588;28;20053;-88
2022/04/10 09:43:10;;;;;;;5.45;2.15;;;9.30;99.90;;;;;;5037511;28;20033;-88
2022/04/10 09:45:41;;;;;;;6.65;2.30;;;9.40;99.90;;;;;;5055435;28;20439;-88
2022/04/10 09:48:19;;;;;;;4.53;1.88;;;9.50;99.90;;;;;;5037560;28;20480;-89
2022/04/10 09:50:45;;;;;;;7.75;2.15;;;9.60;99.90;;;;;;5037505;28;20029;-87
2022/04/10 09:53:11;;;;;;;5.00;2.00;;;9.60;99.90;;;;;;5037448;28;20029;-88
2022/04/10 09:55:40;;;;;;;3.55;1.80;;;9.60;99.90;;;;;;5055314;28;20025;-87
2022/04/10 09:58:09;;;;;;;5.80;1.95;;;9.50;99.90;;;;;;5037590;28;20032;-89
2022/04/10 10:00:40;;;;;;;4.57;2.20;;;9.30;99.90;;;;;;5055460;28;20017;-88
2022/04/10 10:03:07;;;;;;;6.10;1.95;;;9.20;99.90;;;;;;5037474;28;20020;-88
2022/04/10 10:05:34;;;;;;;4.50;2.22;;;9.10;99.90;;;;;;5037434;28;20021;-88
2022/04/10 10:08:00;;;;;;;4.50;2.30;;;8.90;99.90;;;;;;5055088;28;20388;-89
2022/04/10 10:10:29;;;;;;;4.95;2.17;;;8.80;99.90;;;;;;5037207;28;20092;-88
2022/04/10 10:12:56;;;;;;;4.03;2.40;;;8.70;99.90;;;;;;5037078;28;20036;-88
2022/04/10 10:15:23;;;;;;;4.75;2.60;;;8.70;99.90;;;;;;5037246;28;20365;-88
2022/04/10 10:17:49;;;;;;;5.40;2.35;;;8.60;99.90;;;;;;5037277;28;20094;-89
2022/04/10 10:20:17;;;;;;;4.72;1.98;;;8.60;99.90;;;;;;5054699;28;20025;-89
2022/04/10 10:22:42;;;;;;;4.18;1.98;;;8.60;99.90;;;;;;5036975;28;20434;-89
2022/04/10 10:25:16;;;;;;;5.65;2.30;;;8.70;99.90;;;;;;5055158;28;20076;-89
2022/04/10 10:27:42;;;;;;;7.00;2.88;;;8.80;99.90;;;;;;5054968;28;20017;-88
2022/04/10 10:30:34;;;;;;;5.00;2.10;;;8.90;99.90;;;;;;5036733;28;20055;-89
2022/04/10 10:33:22;;;;;;;4.47;2.80;;;9.00;99.90;;;;;;5036812;28;20025;-89
2022/04/10 10:35:56;;;;;;;4.28;2.50;;;9.20;99.90;;;;;;5054691;28;20087;-89
2022/04/10 10:38:23;;;;;;;4.28;2.10;;;9.30;99.90;;;;;;5036869;28;20028;-89
2022/04/10 10:40:53;;;;;;;7.03;2.60;;;9.40;99.90;;;;;;5036523;28;20025;-89
2022/04/10 10:43:28;;;;;;;8.65;2.65;;;9.50;99.90;;;;;;5036314;28;20029;-89
2022/04/10 10:45:57;;;;;;;4.97;2.63;;;9.60;99.90;;;;;;5036430;28;20032;-89
2022/04/10 10:48:32;;;;;;;4.45;2.70;;;9.70;99.90;;;;;;5036568;28;20028;-89
2022/04/10 10:51:10;;;;;;;7.72;2.72;;;9.80;99.90;;;;;;5036517;28;20021;-89
2022/04/10 10:53:52;;;;;;;4.72;2.70;;;9.80;99.90;;;;;;5054662;28;20115;-89
2022/04/10 10:56:20;;;;;;;4.20;2.13;;;9.90;99.90;;;;;;5037313;28;20029;-89
2022/04/10 10:58:50;;;;;;;3.63;2.20;;;9.90;99.90;;;;;;5054451;28;20033;-89
2022/04/10 11:01:20;;;;;;;4.85;2.38;;;10.00;99.90;;;;;;5036276;28;20029;-88
2022/04/10 11:03:59;;;;;;;3.88;2.08;;;10.00;99.90;;;;;;5037194;28;20025;-88
2022/04/10 11:06:24;;;;;;;3.50;2.10;;;10.10;99.90;;;;;;5036401;28;20025;-90
2022/04/10 11:08:52;;;;;;;5.05;2.28;;;10.10;99.90;;;;;;5036075;28;20119;-89
2022/04/10 11:11:19;;;;;;;5.30;2.33;;;10.00;99.90;;;;;;5035996;28;20083;-88
2022/04/10 11:13:46;;;;;;;3.85;2.10;;;9.90;99.90;;;;;;5035879;28;20028;-88
2022/04/10 11:16:13;;;;;;;3.80;2.28;;;9.80;99.90;;;;;;5035818;28;20119;-88
2022/04/10 11:18:43;;;;;;;2.88;1.92;;;9.70;99.90;;;;;;5035940;28;20025;-87
2022/04/10 11:21:14;;;;;;;4.53;2.10;;;9.70;99.90;;;;;;5035536;28;20044;-88
2022/04/10 11:23:48;;;;;;;4.82;1.85;;;9.70;99.90;;;;;;5035885;28;20424;-90
2022/04/10 11:26:20;;;;;;;5.05;2.00;;;9.70;99.90;;;;;;5035702;28;20400;-89
2022/04/10 11:29:02;;;;;;;3.72;1.92;;;9.90;99.90;;;;;;5035670;28;20116;-88
2022/04/10 11:31:32;;;;;;;4.15;1.80;;;9.90;99.90;;;;;;5053472;28;20033;-88
2022/04/10 11:34:09;;;;;;;5.68;1.90;;;9.90;99.90;;;;;;5053591;28;20025;-90
2022/04/10 11:37:04;;;;;;;4.35;1.90;;;10.00;99.90;;;;;;5035667;28;20029;-88
2022/04/10 11:39:29;;;;;;;;;;;10.00;99.90;;;;;;5019516;28;20044;-88
2022/04/10 11:42:04;;;;;;;4.22;1.90;;;10.00;99.90;;;;;;5035383;28;19908;-88
2022/04/10 11:44:30;;;;;;;;;;;10.00;99.90;;;;;;5053831;28;20452;-88
2022/04/10 11:46:58;;;;;;;4.82;1.90;;;9.80;99.90;;;;;;5035368;28;19908;-88
2022/04/10 11:49:23;;;;;;;4.78;1.45;;;9.80;99.90;;;;;;5053185;28;20360;-89
2022/04/10 11:51:54;;;;;;;4.18;1.88;;;9.70;99.90;;;;;;5053092;28;20032;-88
2022/04/10 11:54:32;;;;;;;3.67;1.63;;;9.60;99.90;;;;;;5035377;28;20512;-88
2022/04/10 11:56:59;;;;;;;2.95;1.60;;;9.50;99.90;;;;;;5035052;28;20041;-87
2022/04/10 11:59:26;;;;;;;3.63;1.40;;;9.40;99.90;;;;;;5035615;28;20040;-88
2022/04/10 12:01:53;;;;;;;3.72;1.65;;;9.40;99.90;;;;;;5035081;28;20115;-89
2022/04/10 12:04:20;;;;;;;2.85;1.52;;;9.40;99.90;;;;;;5053179;28;20494;-88
2022/04/10 12:06:46;;;;;;;7.03;1.85;;;9.40;99.90;;;;;;5035170;28;20118;-88
2022/04/10 12:09:12;;;;;;;7.15;1.95;;;9.40;99.90;;;;;;5035765;28;20139;-88
2022/04/10 12:11:39;;;;;;;3.40;1.55;;;9.40;99.90;;;;;;5035050;28;20519;-88
2022/04/10 12:14:21;;;;;;;4.00;1.63;;;9.40;99.90;;;;;;5035080;28;20025;-88
2022/04/10 12:16:47;;;;;;;3.95;1.70;;;9.50;99.90;;;;;;5035034;28;20392;-88
2022/04/10 12:19:13;;;;;;;3.05;1.42;;;9.50;99.90;;;;;;5053213;28;20036;-89
2022/04/10 12:21:48;;;;;;;2.88;1.50;;;9.60;99.90;;;;;;5034748;28;20041;-87
2022/04/10 12:24:20;;;;;;;7.40;2.65;;;9.70;99.90;;;;;;5053113;28;20041;-91
2022/04/10 12:26:46;;;;;;;4.90;1.88;;;9.80;99.90;;;;;;5052973;28;20052;-89
2022/04/10 12:29:12;;;;;;;3.03;1.92;;;10.00;99.90;;;;;;5034967;28;20526;-88
2022/04/10 12:31:41;;;;;;;6.07;2.15;;;10.20;99.90;;;;;;5035208;28;20025;-90
2022/04/10 12:34:10;;;;;;;3.22;1.52;;;10.20;99.90;;;;;;5034929;28;20065;-89
2022/04/10 12:36:45;;;;;;;3.78;1.80;;;10.50;99.90;;;;;;5052838;28;20053;-89
2022/04/10 12:39:21;;;;;;;4.10;1.80;;;10.60;99.90;;;;;;5034888;28;20037;-88
2022/04/10 12:42:14;;;;;;;4.20;1.60;;;10.80;99.90;;;;;;5034687;28;20488;-88
2022/04/10 12:44:41;;;;;;;5.43;1.90;;;10.90;99.90;;;;;;5034865;28;20049;-88
2022/04/10 12:47:08;;;;;;;6.63;1.60;;;10.80;99.90;;;;;;5052535;28;20029;-88
2022/04/10 12:49:39;;;;;;;3.25;1.40;;;10.80;99.90;;;;;;5052545;28;20071;-88
2022/04/10 12:52:08;;;;;;;2.95;1.67;;;10.60;99.90;;;;;;5034576;28;20051;-88
2022/04/10 12:54:43;;;;;;;5.05;1.55;;;10.50;99.90;;;;;;5034582;28;20029;-87
2022/04/10 12:57:11;;;;;;;3.67;1.52;;;10.40;99.90;;;;;;5052568;28;20079;-88
2022/04/10 12:59:44;;;;;;;3.17;1.48;;;10.30;99.90;;;;;;5034538;28;20021;-87
2022/04/10 13:02:34;;;;;;;3.88;1.60;;;10.20;99.90;;;;;;5052677;28;20476;-88
2022/04/10 13:05:09;;;;;;;4.63;1.70;;;10.20;99.90;;;;;;5034650;28;20025;-86
2022/04/10 13:07:35;;;;;;;3.30;1.33;;;10.30;99.90;;;;;;5053469;28;20052;-89
2022/04/10 13:10:00;;;;;;;1.58;1.08;;;10.50;99.90;;;;;;5038323;28;20032;-88